Warning: Javascript must be enabled to use all the features on this page!


Page Loading - Please Wait...

Click to hideNews Bulletins

Peak Streamflow for the Nation

USGS 11480390 MAD R AB RUTH RES NR FOREST GLEN CA

Trinity County, California
Hydrologic Unit Code 18010102
Latitude  40°17'04", Longitude 123°20'03" NAD27
Drainage area 93.8  square miles
Output formats
Table
Graph
Tab-separated file
peakfq (watstore) format
Reselect output format
Water
Year
Date Gage
Height
(feet)
Stream-
flow
(cfs)
1981 1981-01-28 7.29 2,950
1982 1981-12-19 12.49 11,300
1983 1983-01-26 10.45 7,390
1984 1983-12-07 7.50 3,340
1985 1985-02-08 7.63 3,490
1986 1986-02-17 11.39 15,000
1987 1987-03-12 7.80 5,020
1988 1987-12-10 8.83 7,270
1989 1988-11-22 9.40 8,790
1990 1990-01-08 8.58 6,680
1991 1991-03-04 7.57 3,650
1992 1992-02-19 6.44 2,370
1993 1993-01-20 13.10 11,700
1994 1994-01-23 5.23 1,030
1995 1995-01-09 11.86 9,810
1996 1995-12-12 10.32 7,470
1997 1996-12-30 12.78 11,300
1998 1998-01-17 10.46 7,680
1999 1999-02-07 8.78 5,140
2000 2000-02-14 9.56 6,340
2001 2001-03-05 6.38 2,080
2002 2002-01-06 7.89 3,910
2003 2002-12-16 11.33 8,980
2004 2004-02-17 10.89 8,500
2005 2004-12-08 8.54 4,710
2006 2005-12-30 14.12 14,800
2007 2006-12-26 6.53 2,080
2008 2008-01-04 10.17 7,280
2009 2009-05-05 7.91 3,790
2010 2010-01-25 7.72 3,510
2011 2010-12-29 10.09 7,130
2012 2012-03-28 8.16 3,510
2013 2012-12-02 12.16 9,390
2014 2014-03-29 9.35 4,010
2015 2015-02-07 9.81 4,490
2016 2016-01-17 11.85 6,890
2017 2017-01-10 12.54 7,810
2018 2018-04-07 9.68 4,350
2019 2019-02-27 13.11 8,580
2020 2020-01-26 7.52 2,610